Overview Statistics Trail Chart Weather Telemetry Raw packets
 

This is the latest recevied weather packets stored in our database for station/object EA3CH. If no packets are shown the sender has not sent any weather packets the latest 10 day(s).

<< 21 22 23 24 25 26 27 >>
Time Temp. Humidity Pressure Rain* Wind** Luminosity Snow
1788139803 16.67° C 76% 1019.3 hPa 0 mm - 0 W/m² -
1788138905 17.22° C 65% 1019.1 hPa 0 mm - 0 W/m² -
1788138904 16.67° C 75% 1019.3 hPa 0 mm - 0 W/m² -
1788138004 17.22° C 74% 1019.3 hPa 0 mm - 0 W/m² -
1788137105 17.78° C 63% 1019.1 hPa 0 mm - 0 W/m² -
1788136204 16.67° C 74% 1019.3 hPa 0 mm - 0 W/m² -
1788135321 16.67° C 72% 1019.3 hPa 0 mm - 0 W/m² -
1788134404 17.22° C 71% 1019.3 hPa 0 mm - 0 W/m² -
1788133504 17.22° C 71% 1019.4 hPa 0 mm - 0 W/m² -
1788132603 17.78° C 69% 1019.4 hPa 0 mm - 0 W/m² -
1788131704 18.33° C 67% 1019.4 hPa 0 mm - 0 W/m² -
1788130804 18.33° C 66% 1019.4 hPa 0 mm - 0 W/m² -
1788129904 17.78° C 66% 1019.4 hPa 0 mm - 0 W/m² -
1788129015 18.33° C 65% 1019.5 hPa 0 mm - 0 W/m² -
1788128104 18.33° C 64% 1019.4 hPa 0 mm - 0 W/m² -
1788127204 18.33° C 64% 1019.4 hPa 0 mm - 0 W/m² -
1788126304 18.89° C 61% 1019.2 hPa 0 mm - 0 W/m² -
1788125403 19.44° C 60% 1019.2 hPa 0 mm - 0 W/m² -
1788124504 20° C 59% 1019.2 hPa 0 mm - 0 W/m² -
1788123605 20.56° C 49% 1019.1 hPa 0 mm - 0 W/m² -
1788123604 20° C 60% 1019.2 hPa 0 mm - 0 W/m² -
1788122704 20° C 61% 1019.1 hPa 0 mm - 0 W/m² -
1788121803 20.56° C 62% 1019 hPa 0 mm - 0 W/m² -
1788120913 20.56° C 63% 1018.9 hPa 0 mm - 0 W/m² -
1788120005 22.22° C 52% 1018.5 hPa 0 mm - 0 W/m² -

* Rain latest hour (hover to see other rain measurements)
** Current wind speed in m/s (hover to see current wind gust speed)